createdAt,value
2023-04-21T00:01:30.326Z,9.40
2023-04-21T00:06:37.001Z,12.80
2023-04-21T00:11:43.334Z,9.80
2023-04-21T00:16:53.228Z,8.57
2023-04-21T00:22:01.507Z,6.60
2023-04-21T00:27:07.768Z,8.25
2023-04-21T00:32:15.574Z,7.80
2023-04-21T00:37:21.784Z,9.40
2023-04-21T00:42:28.170Z,7.45
2023-04-21T00:47:36.061Z,11.68
2023-04-21T00:52:44.222Z,11.43
2023-04-21T00:57:52.660Z,7.30
2023-04-21T01:03:02.360Z,11.10
2023-04-21T01:08:09.355Z,9.52
2023-04-21T01:13:15.835Z,6.40
2023-04-21T01:18:23.492Z,9.90
2023-04-21T01:23:31.475Z,8.48
2023-04-21T01:28:37.790Z,8.50
2023-04-21T01:33:44.044Z,7.07
2023-04-21T01:38:51.754Z,7.97
2023-04-21T01:43:58.375Z,8.00
2023-04-21T01:49:04.682Z,6.82
2023-04-21T01:54:14.705Z,8.50
2023-04-21T01:59:21.327Z,6.83
2023-04-21T02:04:28.299Z,6.70
2023-04-21T02:09:36.231Z,6.75
2023-04-21T02:14:45.584Z,9.23
2023-04-21T02:19:52.662Z,7.85
2023-04-21T02:25:02.486Z,5.97
2023-04-21T02:30:11.525Z,7.57
2023-04-21T02:35:17.941Z,10.18
2023-04-21T02:40:25.628Z,6.85
2023-04-21T02:45:32.242Z,7.60
2023-04-21T02:50:38.642Z,9.45
2023-04-21T02:55:46.860Z,8.25
2023-04-21T03:00:53.246Z,6.50
2023-04-21T03:05:59.991Z,7.70
2023-04-21T03:11:07.719Z,11.98
2023-04-21T03:16:14.180Z,7.13
2023-04-21T03:21:23.655Z,6.35
2023-04-21T03:26:31.649Z,6.35
2023-04-21T03:31:37.981Z,11.10
2023-04-21T03:36:44.297Z,8.50
2023-04-21T03:41:52.109Z,10.90
2023-04-21T03:46:58.368Z,9.93
2023-04-21T03:52:04.854Z,12.75
2023-04-21T03:57:12.589Z,8.20
2023-04-21T04:02:19.094Z,10.85
2023-04-21T04:07:25.402Z,7.53
2023-04-21T04:12:33.566Z,9.65
2023-04-21T04:17:40.045Z,7.57
2023-04-21T04:22:46.970Z,13.57
2023-04-21T04:27:56.062Z,10.95
2023-04-21T04:33:02.731Z,7.85
2023-04-21T04:38:09.291Z,6.88
2023-04-21T04:43:17.319Z,8.98
2023-04-21T04:48:24.885Z,11.57
2023-04-21T04:53:31.703Z,10.25
2023-04-21T04:58:39.545Z,9.02
2023-04-21T05:03:47.417Z,10.35
2023-04-21T05:08:54.074Z,8.90
2023-04-21T05:14:02.679Z,9.80
2023-04-21T05:19:09.216Z,8.32
2023-04-21T05:24:15.725Z,9.00
2023-04-21T05:29:23.801Z,7.65
2023-04-21T05:34:30.441Z,14.65
2023-04-21T05:39:36.921Z,8.57
2023-04-21T05:44:44.789Z,11.88
2023-04-21T05:49:54.178Z,18.30
2023-04-21T05:55:01.027Z,17.40
2023-04-21T06:00:11.398Z,17.50
2023-04-21T06:05:18.020Z,7.47
2023-04-21T06:10:24.536Z,6.88
2023-04-21T06:15:32.431Z,12.38
2023-04-21T06:20:38.884Z,9.05
2023-04-21T06:25:45.291Z,5.80
2023-04-21T06:30:53.102Z,6.65
2023-04-21T06:35:59.499Z,8.82
2023-04-21T06:41:06.933Z,6.78
2023-04-21T06:46:15.035Z,6.93
2023-04-21T06:51:21.358Z,7.45
2023-04-21T06:56:29.607Z,6.07
2023-04-21T07:01:37.452Z,5.73
2023-04-21T07:06:43.955Z,6.60
2023-04-21T07:11:50.153Z,8.30
2023-04-21T07:16:58.338Z,8.48
2023-04-21T07:22:04.921Z,9.10
2023-04-21T07:27:11.663Z,7.30
2023-04-21T07:32:19.612Z,4.90
2023-04-21T07:37:27.486Z,5.80
2023-04-21T07:42:33.751Z,6.70
2023-04-21T07:47:41.781Z,10.68
2023-04-21T07:52:49.204Z,6.37
2023-04-21T07:57:56.379Z,3.28
2023-04-21T08:03:04.369Z,3.38
2023-04-21T08:08:11.022Z,5.53
2023-04-21T08:13:17.730Z,5.63
2023-04-21T08:18:25.851Z,4.38
2023-04-21T08:23:32.686Z,5.97
2023-04-21T08:28:39.628Z,6.45
2023-04-21T08:34:00.432Z,6.20
2023-04-21T08:39:08.444Z,7.25
2023-04-21T08:44:16.194Z,5.30
2023-04-21T08:49:26.052Z,3.08
2023-04-21T08:54:32.645Z,3.58
2023-04-21T08:59:39.526Z,5.13
2023-04-21T09:04:49.701Z,7.22
2023-04-21T09:09:58.754Z,7.65
2023-04-21T09:15:08.256Z,5.68
2023-04-21T09:20:21.838Z,7.05
2023-04-21T09:25:28.494Z,3.25
2023-04-21T09:30:38.315Z,9.98
2023-04-21T09:35:46.259Z,7.10
2023-04-21T09:41:00.235Z,11.98
2023-04-21T09:46:07.541Z,5.95
2023-04-21T09:56:31.527Z,7.53
2023-04-21T10:01:39.468Z,4.80
2023-04-21T10:06:48.851Z,6.28
2023-04-21T10:11:56.002Z,5.45
2023-04-21T10:17:08.407Z,4.30
2023-04-21T10:22:28.027Z,8.23
2023-04-21T10:27:37.828Z,6.88
2023-04-21T10:32:45.789Z,3.47
2023-04-21T10:37:53.680Z,4.80
2023-04-21T10:43:00.052Z,3.45
2023-04-21T10:48:16.272Z,8.38
2023-04-21T10:53:28.875Z,6.85
2023-04-21T10:58:37.018Z,6.97
2023-04-21T11:03:43.666Z,7.80
2023-04-21T11:09:00.895Z,3.35
2023-04-21T11:14:08.116Z,6.00
2023-04-21T11:19:16.931Z,4.18
2023-04-21T11:24:25.392Z,3.55
2023-04-21T11:29:32.389Z,2.15
2023-04-21T11:34:39.750Z,4.57
2023-04-21T11:39:47.602Z,3.35
2023-04-21T11:44:57.697Z,5.03
2023-04-21T11:50:04.814Z,2.72
2023-04-21T11:55:19.849Z,4.93
2023-04-21T12:00:31.290Z,3.33
2023-04-21T12:05:38.221Z,4.22
2023-04-21T12:10:50.457Z,3.65
2023-04-21T12:15:57.228Z,1.45
2023-04-21T12:21:04.866Z,2.78
2023-04-21T12:26:13.118Z,6.80
2023-04-21T12:31:20.509Z,6.05
2023-04-21T12:36:28.284Z,5.70
2023-04-21T12:41:36.221Z,8.27
2023-04-21T12:46:42.536Z,3.77
2023-04-21T12:51:48.912Z,3.17
2023-04-21T12:56:56.865Z,9.98
2023-04-21T13:02:03.565Z,2.97
2023-04-21T13:07:10.978Z,4.35
2023-04-21T13:12:18.924Z,4.53
2023-04-21T13:17:25.434Z,3.00
2023-04-21T13:22:32.158Z,6.40
2023-04-21T13:27:40.649Z,6.57
2023-04-21T13:32:47.164Z,4.45
2023-04-21T13:37:54.704Z,3.75
2023-04-21T13:43:02.660Z,4.03
2023-04-21T13:48:09.071Z,2.83
2023-04-21T13:53:17.654Z,9.80
2023-04-21T13:58:27.463Z,4.82
2023-04-21T14:03:34.153Z,14.07
2023-04-21T14:08:41.157Z,3.47
2023-04-21T14:14:07.526Z,2.80
2023-04-21T14:19:15.925Z,12.48
2023-04-21T14:24:23.288Z,4.65
2023-04-21T14:29:31.390Z,8.10
2023-04-21T14:34:38.222Z,3.78
2023-04-21T14:39:44.987Z,3.75
2023-04-21T14:44:53.076Z,3.72
2023-04-21T14:49:59.855Z,5.68
2023-04-21T14:55:07.087Z,2.83
2023-04-21T15:00:16.874Z,4.30
2023-04-21T15:05:23.779Z,4.07
2023-04-21T15:10:32.740Z,9.07
2023-04-21T15:15:41.866Z,7.43
2023-04-21T15:20:48.819Z,7.88
2023-04-21T15:25:55.671Z,3.85
2023-04-21T15:31:03.900Z,2.58
2023-04-21T15:36:10.541Z,4.85
2023-04-21T15:41:17.970Z,7.45
2023-04-21T15:46:26.063Z,10.48
2023-04-21T15:51:36.144Z,5.30
2023-04-21T15:56:43.033Z,3.88
2023-04-21T16:01:51.680Z,5.88
2023-04-21T16:06:58.084Z,3.22
2023-04-21T16:12:08.935Z,6.30
2023-04-21T16:17:16.929Z,7.50
2023-04-21T16:22:23.634Z,6.30
2023-04-21T16:27:30.401Z,5.22
2023-04-21T16:32:38.630Z,6.50
2023-04-21T16:37:45.951Z,15.10
2023-04-21T16:42:52.896Z,40.17
2023-04-21T16:48:01.069Z,168.93
2023-04-21T16:53:07.782Z,189.73
2023-04-21T16:58:14.257Z,102.72
2023-04-21T17:03:22.833Z,41.03
2023-04-21T17:13:43.784Z,24.77
2023-04-21T17:18:55.192Z,72.72
2023-04-21T17:24:02.269Z,85.50
2023-04-21T17:29:09.499Z,87.93
2023-04-21T17:34:17.594Z,101.57
2023-04-21T17:39:24.240Z,145.13
2023-04-21T17:44:30.602Z,214.02
2023-04-21T17:49:38.939Z,215.68
2023-04-21T17:54:45.946Z,186.63
2023-04-21T17:59:55.954Z,192.18
2023-04-21T18:05:04.983Z,181.40
2023-04-21T18:10:12.550Z,170.07
2023-04-21T18:15:19.715Z,156.32
2023-04-21T18:20:27.912Z,147.82
2023-04-21T18:30:47.516Z,121.93
2023-04-21T18:35:57.328Z,93.70
2023-04-21T18:41:05.465Z,92.75
2023-04-21T18:46:14.283Z,102.10
2023-04-21T18:51:30.276Z,88.68
2023-04-21T18:56:41.871Z,81.38
2023-04-21T19:01:50.075Z,73.55
2023-04-21T19:06:59.594Z,64.55
2023-04-21T19:12:08.206Z,62.75
2023-04-21T19:17:16.066Z,71.10
2023-04-21T19:22:25.358Z,61.30
2023-04-21T19:27:33.217Z,70.68
2023-04-21T19:32:41.930Z,53.70
2023-04-21T19:37:55.423Z,60.67
2023-04-21T19:43:05.324Z,75.55
2023-04-21T19:48:13.558Z,50.45
2023-04-21T19:53:24.052Z,47.08
2023-04-21T19:58:40.569Z,56.40
2023-04-21T20:03:50.009Z,52.38
2023-04-21T20:08:59.721Z,69.53
2023-04-21T20:14:07.149Z,54.92
2023-04-21T20:19:15.527Z,58.33
2023-04-21T20:24:24.668Z,62.88
2023-04-21T20:29:31.459Z,78.78
2023-04-21T20:34:40.397Z,67.53
2023-04-21T20:39:49.213Z,74.70
2023-04-21T20:44:56.078Z,61.70
2023-04-21T20:50:03.667Z,70.43
2023-04-21T20:55:13.579Z,80.35
2023-04-21T21:00:20.564Z,68.63
2023-04-21T21:05:29.356Z,66.90
2023-04-21T21:10:37.960Z,75.18
2023-04-21T21:15:44.928Z,71.10
2023-04-21T21:20:52.148Z,64.40
2023-04-21T21:26:00.681Z,86.80
2023-04-21T21:31:07.854Z,64.70
2023-04-21T21:36:14.491Z,64.47
2023-04-21T21:41:22.792Z,55.28
2023-04-21T21:46:29.867Z,65.57
2023-04-21T21:51:38.556Z,56.15
2023-04-21T21:56:46.543Z,74.32
2023-04-21T22:01:53.869Z,56.13
2023-04-21T22:07:00.463Z,48.60
2023-04-21T22:12:08.842Z,46.03
2023-04-21T22:17:16.284Z,46.03
2023-04-21T22:22:23.029Z,47.30
2023-04-21T22:27:33.532Z,49.25
2023-04-21T22:32:40.165Z,47.55
2023-04-21T22:37:46.746Z,40.17
2023-04-21T22:42:55.167Z,52.08
2023-04-21T22:48:01.768Z,45.13
2023-04-21T22:53:08.616Z,42.70
2023-04-21T22:58:16.725Z,51.10
2023-04-21T23:03:24.608Z,41.78
2023-04-21T23:08:31.261Z,45.05
2023-04-21T23:13:40.274Z,41.13
2023-04-21T23:18:46.864Z,44.80
2023-04-21T23:23:53.881Z,39.33
2023-04-21T23:29:02.039Z,38.47
2023-04-21T23:34:08.605Z,43.17
2023-04-21T23:39:15.550Z,40.40
2023-04-21T23:44:23.621Z,37.83
2023-04-21T23:49:30.128Z,37.63
2023-04-21T23:54:36.553Z,38.08
2023-04-21T23:59:44.488Z,33.78
